Time;durP1;ratioP1;P1;durP2;ratioP2;P2;SDS_P1;SDS_P2;PMS_P1;PMS_P2;Temp;Humidity;BMP_temperature;BMP_pressure;BME280_temperature;BME280_humidity;BME280_pressure;Samples;Min_cycle;Max_cycle;Signal;HPM_P1;HPM_P2
2021/09/07 00:00:15;;;;;;;24.00;12.88;;;;;;;;;;5094779;28;20069;-65
2021/09/07 00:02:41;;;;;;;17.55;10.82;;;;;;;;;;5094646;28;20024;-64
2021/09/07 00:05:09;;;;;;;30.08;11.07;;;;;;;;;;5094567;28;20031;-66
2021/09/07 00:07:35;;;;;;;22.25;12.27;;;;;;;;;;5094439;28;20025;-66
2021/09/07 00:10:01;;;;;;;23.50;12.27;;;;;;;;;;5092786;28;20371;-65
2021/09/07 00:12:27;;;;;;;24.83;11.77;;;;;;;;;;5095060;28;20055;-64
2021/09/07 00:14:53;;;;;;;21.60;12.73;;;;;;;;;;5094942;28;20416;-64
2021/09/07 00:17:19;;;;;;;20.25;12.57;;;;;;;;;;5094457;28;20418;-65
2021/09/07 00:19:45;;;;;;;16.27;12.40;;;;;;;;;;5076042;28;20460;-65
2021/09/07 00:22:11;;;;;;;21.75;13.23;;;;;;;;;;5073710;28;20120;-65
2021/09/07 00:24:37;;;;;;;27.30;13.88;;;;;;;;;;5074170;28;20738;-65
2021/09/07 00:27:03;;;;;;;28.70;12.88;;;;;;;;;;5072533;28;20099;-66
2021/09/07 00:29:29;;;;;;;19.35;12.60;;;;;;;;;;5073916;28;20082;-65
2021/09/07 00:31:55;;;;;;;18.35;12.18;;;;;;;;;;5073883;28;20033;-65
2021/09/07 00:34:21;;;;;;;18.52;12.20;;;;;;;;;;5072747;28;20476;-65
2021/09/07 00:36:47;;;;;;;22.77;13.50;;;;;;;;;;5074246;28;20059;-65
2021/09/07 00:39:14;;;;;;;22.45;13.40;;;;;;;;;;5055713;28;20035;-65
2021/09/07 00:41:40;;;;;;;27.13;13.70;;;;;;;;;;5073292;28;20111;-65
2021/09/07 00:44:17;;;;;;;21.92;13.65;;;;;;;;;;5055464;28;20419;-65
2021/09/07 00:46:45;;;;;;;22.70;15.88;;;;;;;;;;5073683;28;20024;-65
2021/09/07 00:49:12;;;;;;;25.38;16.10;;;;;;;;;;5073413;28;20047;-65
2021/09/07 00:51:38;;;;;;;20.85;14.45;;;;;;;;;;5073512;28;20024;-65
2021/09/07 00:54:04;;;;;;;22.63;15.30;;;;;;;;;;5073118;28;20025;-66
2021/09/07 00:56:32;;;;;;;22.75;14.98;;;;;;;;;;5073213;28;20464;-66
2021/09/07 00:58:58;;;;;;;20.83;13.25;;;;;;;;;;5055165;28;20031;-66
2021/09/07 01:01:24;;;;;;;23.10;15.52;;;;;;;;;;5073144;28;20476;-66
2021/09/07 01:03:50;;;;;;;24.10;15.00;;;;;;;;;;5071888;28;20031;-67
2021/09/07 01:06:16;;;;;;;21.90;14.25;;;;;;;;;;5073349;28;20028;-69
2021/09/07 01:08:42;;;;;;;16.33;12.60;;;;;;;;;;5055274;28;20028;-66
2021/09/07 01:11:09;;;;;;;17.45;13.05;;;;;;;;;;5055529;28;20401;-66
2021/09/07 01:13:35;;;;;;;21.42;13.18;;;;;;;;;;5073183;28;20025;-67
2021/09/07 01:16:01;;;;;;;20.55;11.88;;;;;;;;;;5055012;28;20386;-66
2021/09/07 01:18:27;;;;;;;19.02;12.70;;;;;;;;;;5071643;28;20086;-66
2021/09/07 01:20:53;;;;;;;21.13;15.00;;;;;;;;;;5073115;28;20028;-66
2021/09/07 01:23:19;;;;;;;21.65;13.98;;;;;;;;;;5054835;28;20052;-67
2021/09/07 01:25:45;;;;;;;23.92;16.17;;;;;;;;;;5073130;28;20032;-66
2021/09/07 01:28:13;;;;;;;368.75;25.38;;;;;;;;;;5072712;28;20096;-66
2021/09/07 01:30:39;;;;;;;35.45;15.68;;;;;;;;;;5073019;28;20026;-66
2021/09/07 01:33:05;;;;;;;26.73;15.85;;;;;;;;;;5054592;28;20030;-66
2021/09/07 01:35:31;;;;;;;20.92;12.57;;;;;;;;;;5072659;28;20044;-66
2021/09/07 01:37:57;;;;;;;25.92;14.60;;;;;;;;;;5073145;28;20056;-65
2021/09/07 01:40:23;;;;;;;22.73;12.63;;;;;;;;;;5073270;28;20029;-66
2021/09/07 01:42:49;;;;;;;27.20;13.13;;;;;;;;;;5072687;28;20476;-66
2021/09/07 01:45:15;;;;;;;18.58;12.27;;;;;;;;;;5072569;28;20103;-65
2021/09/07 01:47:42;;;;;;;27.35;12.80;;;;;;;;;;5072672;28;20439;-65
2021/09/07 01:50:08;;;;;;;26.23;12.50;;;;;;;;;;5072668;28;20055;-65
2021/09/07 01:52:34;;;;;;;23.20;13.02;;;;;;;;;;5055210;28;20024;-65
2021/09/07 01:55:00;;;;;;;23.10;14.88;;;;;;;;;;5072550;28;20040;-64
2021/09/07 01:57:26;;;;;;;24.27;15.48;;;;;;;;;;5072380;28;20024;-65
2021/09/07 01:59:53;;;;;;;28.45;15.32;;;;;;;;;;5072697;28;20047;-65
2021/09/07 02:02:19;;;;;;;21.60;12.95;;;;;;;;;;5072529;28;20106;-65
2021/09/07 02:04:46;;;;;;;30.30;14.35;;;;;;;;;;5072736;28;20087;-65
2021/09/07 02:07:12;;;;;;;17.38;12.45;;;;;;;;;;5073022;28;20074;-66
2021/09/07 02:09:38;;;;;;;33.83;13.68;;;;;;;;;;5073028;28;20471;-65
2021/09/07 02:12:06;;;;;;;19.58;12.35;;;;;;;;;;5072531;28;20028;-66
2021/09/07 02:14:32;;;;;;;17.73;12.48;;;;;;;;;;5072430;28;20472;-65
2021/09/07 02:16:58;;;;;;;18.65;12.23;;;;;;;;;;5072433;28;20036;-66
2021/09/07 02:19:24;;;;;;;20.10;12.73;;;;;;;;;;5070804;28;20098;-66
2021/09/07 02:21:50;;;;;;;18.10;12.38;;;;;;;;;;5072980;28;20034;-66
2021/09/07 02:24:16;;;;;;;18.95;12.57;;;;;;;;;;5092584;28;20032;-65
2021/09/07 02:26:42;;;;;;;20.98;12.70;;;;;;;;;;5074474;28;20034;-65
2021/09/07 02:29:09;;;;;;;19.20;12.95;;;;;;;;;;5092282;28;20119;-67
2021/09/07 02:31:35;;;;;;;21.42;13.50;;;;;;;;;;5092619;28;20028;-65
2021/09/07 02:34:01;;;;;;;18.45;13.25;;;;;;;;;;5092433;28;20020;-66
2021/09/07 02:36:27;;;;;;;17.80;12.10;;;;;;;;;;5067051;28;20362;-65
2021/09/07 02:38:54;;;;;;;24.83;12.93;;;;;;;;;;5072178;28;20032;-66
2021/09/07 02:41:20;;;;;;;16.08;11.75;;;;;;;;;;5072406;28;20037;-65
2021/09/07 02:43:46;;;;;;;18.75;12.35;;;;;;;;;;5072282;28;20032;-66
2021/09/07 02:46:12;;;;;;;16.88;12.27;;;;;;;;;;5072319;28;20392;-65
2021/09/07 02:48:38;;;;;;;20.40;11.73;;;;;;;;;;5071993;28;20510;-66
2021/09/07 02:51:05;;;;;;;16.88;12.27;;;;;;;;;;5071989;28;20024;-66
2021/09/07 02:53:30;;;;;;;17.23;12.82;;;;;;;;;;5072114;28;20031;-65
2021/09/07 02:55:56;;;;;;;17.73;12.45;;;;;;;;;;5089773;28;20044;-65
2021/09/07 02:58:22;;;;;;;22.85;14.60;;;;;;;;;;5092336;28;20024;-66
2021/09/07 03:00:48;;;;;;;18.08;12.98;;;;;;;;;;5091988;28;20024;-66
2021/09/07 03:03:14;;;;;;;17.35;11.60;;;;;;;;;;5092925;28;20024;-65
2021/09/07 03:05:40;;;;;;;18.85;11.55;;;;;;;;;;5095744;28;20028;-66
2021/09/07 03:08:06;;;;;;;17.27;12.70;;;;;;;;;;5095891;28;20114;-66
2021/09/07 03:10:33;;;;;;;19.38;12.52;;;;;;;;;;5095702;28;20028;-65
2021/09/07 03:12:59;;;;;;;27.02;14.55;;;;;;;;;;5077657;28;20031;-66
2021/09/07 03:15:25;;;;;;;20.35;12.88;;;;;;;;;;5095562;28;20051;-66
2021/09/07 03:17:51;;;;;;;18.55;13.02;;;;;;;;;;5074957;28;20499;-64
2021/09/07 03:20:17;;;;;;;23.58;12.55;;;;;;;;;;5075249;28;20103;-67
2021/09/07 03:22:43;;;;;;;19.85;13.65;;;;;;;;;;5070030;28;20130;-66
2021/09/07 03:25:09;;;;;;;20.90;12.93;;;;;;;;;;5095575;28;20063;-66
2021/09/07 03:27:35;;;;;;;23.80;14.43;;;;;;;;;;5095666;28;20024;-65
2021/09/07 03:30:01;;;;;;;21.30;12.63;;;;;;;;;;5095377;28;20035;-65
2021/09/07 03:32:27;;;;;;;18.48;12.27;;;;;;;;;;5095136;28;20043;-66
2021/09/07 03:34:53;;;;;;;20.40;12.10;;;;;;;;;;5095481;28;20111;-65
2021/09/07 03:37:19;;;;;;;23.05;15.50;;;;;;;;;;5085859;28;20112;-65
2021/09/07 03:39:45;;;;;;;20.85;14.88;;;;;;;;;;5074825;28;20025;-66
2021/09/07 03:42:11;;;;;;;23.15;15.05;;;;;;;;;;5074998;28;20032;-66
2021/09/07 03:44:37;;;;;;;22.27;14.32;;;;;;;;;;5074781;28;20039;-66
2021/09/07 03:47:04;;;;;;;22.27;14.15;;;;;;;;;;5075171;28;20028;-66
2021/09/07 03:49:30;;;;;;;20.65;14.57;;;;;;;;;;5075254;28;20025;-65
2021/09/07 03:51:56;;;;;;;26.75;17.55;;;;;;;;;;5074648;28;20494;-65
2021/09/07 03:54:22;;;;;;;19.48;13.63;;;;;;;;;;5074783;28;20028;-65
2021/09/07 03:56:48;;;;;;;25.50;14.57;;;;;;;;;;5089526;28;20024;-67
2021/09/07 03:59:15;;;;;;;23.30;14.52;;;;;;;;;;5094559;28;20024;-65
2021/09/07 04:01:41;;;;;;;26.35;17.50;;;;;;;;;;5076685;28;20044;-66
2021/09/07 04:04:10;;;;;;;26.13;16.33;;;;;;;;;;5095321;28;20379;-65
2021/09/07 04:06:36;;;;;;;22.60;15.85;;;;;;;;;;5095186;28;20035;-65
2021/09/07 04:09:02;;;;;;;28.02;17.65;;;;;;;;;;5094468;28;20034;-65
2021/09/07 04:11:28;;;;;;;35.30;16.88;;;;;;;;;;5094352;28;20447;-65
2021/09/07 04:13:54;;;;;;;24.88;15.35;;;;;;;;;;5094537;28;20470;-65
2021/09/07 04:16:20;;;;;;;19.48;14.13;;;;;;;;;;5093572;28;20431;-66
2021/09/07 04:18:46;;;;;;;22.98;13.93;;;;;;;;;;5084080;28;20028;-66
2021/09/07 04:21:12;;;;;;;27.05;16.67;;;;;;;;;;5061509;28;20025;-65
2021/09/07 04:23:39;;;;;;;25.50;13.10;;;;;;;;;;5054201;28;20120;-64
2021/09/07 04:26:05;;;;;;;30.35;15.07;;;;;;;;;;5054441;28;20369;-65
2021/09/07 04:28:31;;;;;;;33.25;15.15;;;;;;;;;;5053981;28;20021;-65
2021/09/07 04:30:57;;;;;;;20.00;12.95;;;;;;;;;;5053990;28;20411;-66
2021/09/07 04:33:23;;;;;;;28.75;16.98;;;;;;;;;;5053778;28;20069;-65
2021/09/07 04:35:49;;;;;;;31.00;17.77;;;;;;;;;;5053639;28;20127;-64
2021/09/07 04:38:15;;;;;;;27.80;17.63;;;;;;;;;;5069988;28;20070;-66
2021/09/07 04:40:41;;;;;;;24.83;16.13;;;;;;;;;;5073630;28;20135;-65
2021/09/07 04:43:07;;;;;;;27.48;18.17;;;;;;;;;;5073206;28;20028;-66
2021/09/07 04:45:33;;;;;;;32.95;15.73;;;;;;;;;;5055873;28;20040;-66
2021/09/07 04:47:59;;;;;;;62.65;18.45;;;;;;;;;;5073202;28;20017;-66
2021/09/07 04:50:24;;;;;;;26.13;17.33;;;;;;;;;;5073121;28;20036;-69
2021/09/07 04:52:52;;;;;;;27.23;17.08;;;;;;;;;;5055488;28;20020;-70
2021/09/07 04:55:19;;;;;;;23.70;16.00;;;;;;;;;;5073427;28;20499;-70
2021/09/07 04:57:45;;;;;;;26.40;17.58;;;;;;;;;;5073097;28;20020;-69
2021/09/07 05:00:11;;;;;;;28.52;18.40;;;;;;;;;;5067884;28;20486;-68
2021/09/07 05:02:38;;;;;;;28.65;17.83;;;;;;;;;;5073302;28;20035;-69
2021/09/07 05:05:07;;;;;;;33.75;19.65;;;;;;;;;;5070506;28;20070;-68
2021/09/07 05:07:33;;;;;;;31.85;19.90;;;;;;;;;;5074274;28;20081;-69
2021/09/07 05:09:59;;;;;;;38.08;19.15;;;;;;;;;;5061019;28;20024;-64
2021/09/07 05:12:27;;;;;;;38.70;18.65;;;;;;;;;;5079384;28;20062;-64
2021/09/07 05:14:53;;;;;;;37.78;21.55;;;;;;;;;;5080440;28;20027;-64
2021/09/07 05:17:19;;;;;;;43.65;19.75;;;;;;;;;;5080160;28;20382;-64
2021/09/07 05:19:45;;;;;;;34.20;20.75;;;;;;;;;;5083800;28;20024;-63
2021/09/07 05:22:11;;;;;;;32.08;21.02;;;;;;;;;;5080390;28;20032;-64
2021/09/07 05:24:37;;;;;;;33.60;20.83;;;;;;;;;;5078278;28;20044;-64
2021/09/07 05:27:03;;;;;;;32.80;20.60;;;;;;;;;;5083434;28;20068;-71
2021/09/07 05:29:29;;;;;;;37.35;20.58;;;;;;;;;;5077721;28;20123;-68
2021/09/07 05:31:55;;;;;;;31.40;19.80;;;;;;;;;;5054649;28;20123;-68
2021/09/07 05:34:21;;;;;;;30.42;19.98;;;;;;;;;;5055052;28;20032;-68
2021/09/07 05:36:47;;;;;;;29.75;19.42;;;;;;;;;;5083442;28;20438;-70
2021/09/07 05:39:13;;;;;;;35.50;21.35;;;;;;;;;;5055063;28;20028;-68
2021/09/07 05:41:39;;;;;;;31.42;20.92;;;;;;;;;;5072576;28;20035;-68
2021/09/07 05:44:05;;;;;;;30.48;20.73;;;;;;;;;;5072863;28;20013;-68
2021/09/07 05:46:32;;;;;;;33.60;19.88;;;;;;;;;;5072795;28;20017;-68
2021/09/07 05:48:58;;;;;;;31.95;21.00;;;;;;;;;;5072576;28;20104;-68
2021/09/07 05:51:27;;;;;;;32.28;20.38;;;;;;;;;;5072931;28;20066;-68
2021/09/07 05:53:53;;;;;;;34.22;21.42;;;;;;;;;;5072096;28;20033;-68
2021/09/07 05:56:20;;;;;;;34.40;20.52;;;;;;;;;;5072376;28;20033;-68
2021/09/07 05:58:46;;;;;;;36.38;21.17;;;;;;;;;;5072929;28;20025;-68
2021/09/07 06:01:12;;;;;;;33.20;20.73;;;;;;;;;;5054976;28;20047;-68
2021/09/07 06:03:38;;;;;;;35.80;22.05;;;;;;;;;;5072873;28;20024;-68
2021/09/07 06:06:04;;;;;;;34.67;21.80;;;;;;;;;;5072794;28;20036;-69
2021/09/07 06:08:30;;;;;;;35.30;22.23;;;;;;;;;;5072853;28;20549;-70
2021/09/07 06:10:56;;;;;;;32.78;21.50;;;;;;;;;;5072520;28;20376;-65
2021/09/07 06:13:22;;;;;;;32.40;20.67;;;;;;;;;;5072737;28;20029;-67
2021/09/07 06:15:48;;;;;;;30.27;20.27;;;;;;;;;;5072581;28;20062;-67
2021/09/07 06:18:14;;;;;;;38.88;21.65;;;;;;;;;;5072390;28;20387;-67
2021/09/07 06:20:40;;;;;;;32.97;20.88;;;;;;;;;;5072738;28;20418;-67
2021/09/07 06:23:06;;;;;;;29.48;20.15;;;;;;;;;;5049724;28;20485;-66
2021/09/07 06:25:32;;;;;;;26.17;18.52;;;;;;;;;;5034643;28;20036;-67
2021/09/07 06:27:58;;;;;;;23.52;14.80;;;;;;;;;;5038530;28;20049;-67
2021/09/07 06:30:24;;;;;;;23.45;14.18;;;;;;;;;;5051184;28;20029;-67
2021/09/07 06:32:50;;;;;;;16.00;10.00;;;;;;;;;;5052239;28;20021;-67
2021/09/07 06:35:17;;;;;;;28.75;10.18;;;;;;;;;;5050951;28;20044;-67
2021/09/07 06:37:43;;;;;;;17.45;10.68;;;;;;;;;;5041876;28;20017;-67
2021/09/07 06:40:09;;;;;;;15.70;9.65;;;;;;;;;;5038035;28;20032;-66
2021/09/07 06:42:35;;;;;;;17.23;9.95;;;;;;;;;;5055953;28;20025;-67
2021/09/07 06:45:02;;;;;;;20.48;10.00;;;;;;;;;;5054899;28;20021;-67
2021/09/07 06:47:27;;;;;;;18.50;11.05;;;;;;;;;;5054603;28;20027;-67
2021/09/07 06:49:53;;;;;;;16.88;10.50;;;;;;;;;;5055806;28;20025;-67
2021/09/07 06:52:21;;;;;;;30.38;14.88;;;;;;;;;;5055702;28;20032;-67
2021/09/07 06:54:47;;;;;;;35.97;20.60;;;;;;;;;;5054349;28;20062;-67
2021/09/07 06:57:13;;;;;;;26.88;17.00;;;;;;;;;;5055681;28;20420;-66
2021/09/07 06:59:39;;;;;;;32.47;16.42;;;;;;;;;;5037918;28;20052;-67
2021/09/07 07:02:05;;;;;;;34.80;18.15;;;;;;;;;;5037999;28;20033;-67
2021/09/07 07:04:31;;;;;;;38.10;21.00;;;;;;;;;;5055704;28;20021;-67
2021/09/07 07:06:57;;;;;;;32.13;20.65;;;;;;;;;;5055380;28;20416;-67
2021/09/07 07:09:23;;;;;;;44.40;23.40;;;;;;;;;;5054495;28;20029;-67
2021/09/07 07:11:48;;;;;;;36.53;22.92;;;;;;;;;;5055449;28;20028;-67
2021/09/07 07:14:21;;;;;;;39.20;22.80;;;;;;;;;;5054191;28;20040;-67
2021/09/07 07:16:47;;;;;;;34.42;21.88;;;;;;;;;;5054183;28;20036;-67
2021/09/07 07:19:13;;;;;;;37.58;23.10;;;;;;;;;;5043576;28;20068;-67
2021/09/07 07:21:39;;;;;;;42.40;22.00;;;;;;;;;;5055386;28;20429;-67
2021/09/07 07:24:05;;;;;;;35.33;22.98;;;;;;;;;;5067735;28;20044;-67
2021/09/07 07:26:31;;;;;;;36.83;23.02;;;;;;;;;;5075488;28;20044;-67
2021/09/07 07:28:57;;;;;;;38.40;22.65;;;;;;;;;;5057421;28;20349;-67
2021/09/07 07:31:23;;;;;;;41.97;23.98;;;;;;;;;;5075169;28;20082;-66
2021/09/07 07:33:49;;;;;;;34.78;21.60;;;;;;;;;;5075003;28;20025;-67
2021/09/07 07:36:15;;;;;;;38.53;22.75;;;;;;;;;;5074872;28;20063;-67
2021/09/07 07:38:41;;;;;;;40.92;23.48;;;;;;;;;;5074862;28;20032;-67
2021/09/07 07:41:08;;;;;;;37.72;23.67;;;;;;;;;;5056912;28;20052;-67
2021/09/07 07:43:36;;;;;;;39.00;22.58;;;;;;;;;;5074081;28;20468;-67
2021/09/07 07:46:02;;;;;;;37.92;23.13;;;;;;;;;;5074722;28;20107;-67
2021/09/07 07:48:28;;;;;;;39.03;21.63;;;;;;;;;;5074907;28;20021;-67
2021/09/07 07:50:55;;;;;;;39.28;22.42;;;;;;;;;;5074059;28;20021;-76
2021/09/07 07:53:21;;;;;;;38.03;21.60;;;;;;;;;;5076033;28;20027;-77
2021/09/07 07:55:47;;;;;;;36.67;21.15;;;;;;;;;;5075539;28;20060;-74
2021/09/07 07:58:13;;;;;;;33.83;20.55;;;;;;;;;;5075960;28;20028;-77
2021/09/07 08:00:38;;;;;;;35.28;20.17;;;;;;;;;;5076133;28;20376;-77
2021/09/07 08:03:04;;;;;;;29.58;19.17;;;;;;;;;;5076077;28;20024;-77
2021/09/07 08:05:30;;;;;;;36.60;20.73;;;;;;;;;;5057667;28;20079;-78
2021/09/07 08:07:56;;;;;;;43.28;21.10;;;;;;;;;;5076003;28;20012;-77
2021/09/07 08:10:22;;;;;;;37.22;20.55;;;;;;;;;;5057295;28;20025;-78
2021/09/07 08:12:49;;;;;;;36.50;19.33;;;;;;;;;;5075536;28;20025;-79
2021/09/07 08:15:16;;;;;;;44.60;21.20;;;;;;;;;;5076140;28;20043;-77
2021/09/07 08:17:42;;;;;;;35.75;19.92;;;;;;;;;;5075072;28;20016;-77
2021/09/07 08:20:08;;;;;;;41.80;20.15;;;;;;;;;;5075277;28;20024;-77
2021/09/07 08:22:34;;;;;;;34.05;19.70;;;;;;;;;;5075163;28;20108;-77
2021/09/07 08:25:00;;;;;;;37.90;20.05;;;;;;;;;;5074851;28;20064;-69
2021/09/07 08:27:26;;;;;;;38.08;20.98;;;;;;;;;;5074486;28;20027;-77
2021/09/07 08:29:52;;;;;;;33.97;18.30;;;;;;;;;;5074557;28;20024;-77
2021/09/07 08:32:18;;;;;;;34.35;18.40;;;;;;;;;;5074630;28;20581;-77
2021/09/07 08:34:44;;;;;;;30.95;18.60;;;;;;;;;;5074615;28;20031;-77
2021/09/07 08:37:10;;;;;;;25.98;17.60;;;;;;;;;;5074712;28;20028;-77
2021/09/07 08:39:36;;;;;;;25.92;15.30;;;;;;;;;;5074647;28;20518;-77
2021/09/07 08:42:02;;;;;;;27.70;16.33;;;;;;;;;;5074341;28;20059;-76
2021/09/07 08:44:28;;;;;;;35.00;17.52;;;;;;;;;;5073492;28;20012;-76
2021/09/07 08:46:54;;;;;;;26.88;15.68;;;;;;;;;;5076284;28;20024;-77
2021/09/07 08:49:20;;;;;;;28.23;16.85;;;;;;;;;;5074566;28;20095;-76
2021/09/07 08:51:47;;;;;;;33.97;18.10;;;;;;;;;;5074311;28;20486;-76
2021/09/07 08:54:13;;;;;;;28.75;17.02;;;;;;;;;;5074180;28;20150;-76
2021/09/07 08:56:39;;;;;;;33.47;18.25;;;;;;;;;;5074326;28;20154;-75
2021/09/07 08:59:07;;;;;;;30.33;17.15;;;;;;;;;;5074197;28;20078;-77
2021/09/07 09:01:40;;;;;;;34.15;20.08;;;;;;;;;;5055973;28;20476;-76
2021/09/07 09:04:24;;;;;;;34.65;19.23;;;;;;;;;;5074210;28;20434;-76
2021/09/07 09:06:50;;;;;;;25.42;14.82;;;;;;;;;;5055894;28;20032;-76
2021/09/07 09:09:16;;;;;;;28.48;17.98;;;;;;;;;;5073819;28;20024;-76
2021/09/07 09:11:57;;;;;;;39.55;19.48;;;;;;;;;;5074042;28;20024;-77
2021/09/07 09:14:30;;;;;;;29.67;16.95;;;;;;;;;;5073471;28;20024;-77
2021/09/07 09:16:56;;;;;;;;;;;;;;;;;;5074106;28;20427;-77
2021/09/07 09:19:22;;;;;;;26.52;16.30;;;;;;;;;;5054625;28;20401;-76
2021/09/07 09:21:51;;;;;;;24.38;14.85;;;;;;;;;;5073571;28;20028;-75
2021/09/07 09:24:18;;;;;;;32.08;17.92;;;;;;;;;;5073024;28;20059;-77
2021/09/07 09:27:00;;;;;;;30.08;15.57;;;;;;;;;;5055813;28;20024;-77
2021/09/07 09:29:27;;;;;;;28.63;16.58;;;;;;;;;;5073426;28;20437;-77
2021/09/07 09:31:54;;;;;;;31.33;17.23;;;;;;;;;;5073307;28;20100;-77
2021/09/07 09:34:21;;;;;;;28.77;16.13;;;;;;;;;;5073289;28;20025;-75
2021/09/07 09:37:13;;;;;;;30.00;16.98;;;;;;;;;;5073185;28;20035;-78
2021/09/07 09:39:43;;;;;;;30.40;16.13;;;;;;;;;;5070587;28;20037;-78
2021/09/07 09:42:10;;;;;;;24.80;16.38;;;;;;;;;;5055051;28;20128;-75
2021/09/07 09:44:37;;;;;;;32.58;18.45;;;;;;;;;;5072621;28;20024;-75
2021/09/07 09:47:03;;;;;;;29.38;17.10;;;;;;;;;;5067447;28;20021;-76
2021/09/07 09:49:30;;;;;;;30.33;18.45;;;;;;;;;;5057674;28;20024;-76
2021/09/07 09:52:04;;;;;;;33.08;18.40;;;;;;;;;;5072784;28;20035;-76
2021/09/07 09:54:31;;;;;;;26.85;18.13;;;;;;;;;;5072965;28;20056;-77
2021/09/07 09:57:01;;;;;;;30.85;18.25;;;;;;;;;;5073298;28;20119;-77
2021/09/07 09:59:28;;;;;;;29.23;17.83;;;;;;;;;;5072528;28;20025;-71
2021/09/07 10:01:55;;;;;;;30.42;18.33;;;;;;;;;;5072110;28;20017;-71
2021/09/07 10:04:21;;;;;;;33.35;19.38;;;;;;;;;;5072037;28;20028;-70
2021/09/07 10:06:51;;;;;;;32.97;19.52;;;;;;;;;;5071824;28;20099;-69
2021/09/07 10:09:18;;;;;;;30.88;17.73;;;;;;;;;;5072064;28;20112;-70
2021/09/07 10:11:47;;;;;;;34.13;18.48;;;;;;;;;;5070998;28;20131;-77
2021/09/07 10:14:16;;;;;;;28.50;17.50;;;;;;;;;;5074416;28;20024;-77
2021/09/07 10:16:45;;;;;;;28.23;17.98;;;;;;;;;;5073124;28;20041;-68
2021/09/07 10:19:36;;;;;;;28.15;17.55;;;;;;;;;;5074998;28;20021;-71
2021/09/07 10:24:51;;;;;;;28.75;17.83;;;;;;;;;;5076045;28;20067;-74
2021/09/07 10:27:17;;;;;;;33.72;19.05;;;;;;;;;;5058066;28;20115;-75
2021/09/07 10:29:45;;;;;;;51.28;18.17;;;;;;;;;;5076657;28;20024;-74
2021/09/07 10:32:25;;;;;;;25.67;17.27;;;;;;;;;;5058746;28;20042;-72
2021/09/07 10:35:04;;;;;;;29.83;17.35;;;;;;;;;;5075481;28;20097;-69
2021/09/07 10:37:50;;;;;;;42.25;17.48;;;;;;;;;;5056869;28;20477;-71
2021/09/07 10:40:35;;;;;;;27.15;16.88;;;;;;;;;;5056118;28;20376;-71
2021/09/07 10:43:01;;;;;;;36.67;17.92;;;;;;;;;;5056172;28;20475;-71
2021/09/07 10:45:27;;;;;;;37.20;16.98;;;;;;;;;;5059690;28;20412;-70
2021/09/07 10:47:55;;;;;;;37.65;17.52;;;;;;;;;;5057974;28;20761;-69
2021/09/07 10:50:21;;;;;;;32.15;16.50;;;;;;;;;;5057884;28;20037;-69
2021/09/07 10:52:47;;;;;;;31.98;17.10;;;;;;;;;;5076237;28;20078;-69
2021/09/07 10:55:14;;;;;;;32.10;17.30;;;;;;;;;;5075806;28;20380;-70
2021/09/07 10:57:49;;;;;;;36.45;17.13;;;;;;;;;;5075928;28;20487;-69
2021/09/07 11:00:18;;;;;;;29.15;17.13;;;;;;;;;;5075840;28;20020;-68
2021/09/07 11:02:46;;;;;;;38.13;17.75;;;;;;;;;;5074747;28;20032;-69
2021/09/07 11:05:18;;;;;;;31.25;18.00;;;;;;;;;;5074811;28;20090;-69
2021/09/07 11:07:45;;;;;;;29.02;16.75;;;;;;;;;;5075649;28;20017;-69
2021/09/07 11:10:14;;;;;;;37.60;17.83;;;;;;;;;;5074330;28;20068;-69
2021/09/07 11:12:49;;;;;;;30.52;17.77;;;;;;;;;;5075653;28;20024;-68
2021/09/07 11:15:20;;;;;;;27.67;16.98;;;;;;;;;;5075332;28;20023;-68
2021/09/07 11:17:54;;;;;;;29.20;18.75;;;;;;;;;;5075442;28;20024;-69
2021/09/07 11:20:21;;;;;;;40.03;17.58;;;;;;;;;;5075363;28;20032;-69
2021/09/07 11:22:47;;;;;;;32.50;17.17;;;;;;;;;;5075314;28;20021;-69
2021/09/07 11:25:14;;;;;;;29.33;16.88;;;;;;;;;;5075369;28;20154;-69
2021/09/07 11:28:00;;;;;;;28.75;17.27;;;;;;;;;;5075260;28;20040;-68
2021/09/07 11:30:26;;;;;;;28.85;17.05;;;;;;;;;;5057228;28;20544;-69
2021/09/07 11:33:04;;;;;;;26.05;16.27;;;;;;;;;;5075290;28;20020;-68
2021/09/07 11:35:31;;;;;;;25.60;15.88;;;;;;;;;;5064288;28;20045;-69
2021/09/07 11:38:01;;;;;;;30.95;16.40;;;;;;;;;;5055143;28;20013;-68
2021/09/07 11:40:27;;;;;;;28.73;15.77;;;;;;;;;;5037108;28;20028;-68
2021/09/07 11:42:53;;;;;;;31.38;15.88;;;;;;;;;;5055153;28;20021;-68
2021/09/07 11:45:28;;;;;;;22.85;15.20;;;;;;;;;;5055041;28;20057;-68
2021/09/07 11:47:54;;;;;;;23.02;14.73;;;;;;;;;;5055071;28;20488;-68
2021/09/07 11:50:27;;;;;;;25.48;14.25;;;;;;;;;;5055041;28;20063;-68
2021/09/07 11:52:53;;;;;;;20.63;13.80;;;;;;;;;;5054822;28;20487;-68
2021/09/07 11:55:37;;;;;;;19.77;12.85;;;;;;;;;;5036699;28;20044;-68
2021/09/07 11:58:04;;;;;;;21.25;13.35;;;;;;;;;;5054677;28;20049;-68
2021/09/07 12:00:30;;;;;;;23.00;13.88;;;;;;;;;;5054893;28;20060;-68
2021/09/07 12:03:15;;;;;;;22.48;13.60;;;;;;;;;;5067793;28;20067;-68
2021/09/07 12:06:13;;;;;;;21.50;13.48;;;;;;;;;;5074777;28;20025;-68
2021/09/07 12:08:43;;;;;;;20.90;13.15;;;;;;;;;;5058775;28;20132;-68
2021/09/07 12:11:14;;;;;;;22.45;13.95;;;;;;;;;;5073077;28;20383;-68
2021/09/07 12:13:40;;;;;;;22.48;13.68;;;;;;;;;;5073100;28;20024;-69
2021/09/07 12:16:06;;;;;;;20.02;12.07;;;;;;;;;;5074294;28;20033;-68
2021/09/07 12:18:34;;;;;;;17.38;11.88;;;;;;;;;;5074222;28;20407;-68
2021/09/07 12:21:06;;;;;;;20.50;11.45;;;;;;;;;;5074360;28;20024;-68
2021/09/07 12:23:33;;;;;;;15.20;11.27;;;;;;;;;;5074032;28;20048;-68
2021/09/07 12:25:59;;;;;;;19.02;11.43;;;;;;;;;;5056148;28;20472;-68
2021/09/07 12:28:25;;;;;;;15.50;10.75;;;;;;;;;;5073896;28;20028;-68
2021/09/07 12:30:51;;;;;;;15.20;10.48;;;;;;;;;;5073894;28;20025;-68
2021/09/07 12:33:19;;;;;;;14.95;10.65;;;;;;;;;;5073319;28;20466;-69
2021/09/07 12:35:52;;;;;;;17.85;10.77;;;;;;;;;;5073629;28;20364;-68
2021/09/07 12:38:19;;;;;;;19.30;11.23;;;;;;;;;;5074148;28;20028;-68
2021/09/07 12:40:49;;;;;;;16.08;11.23;;;;;;;;;;5074041;28;20103;-68
2021/09/07 12:43:17;;;;;;;16.02;10.75;;;;;;;;;;5073660;28;20467;-69
2021/09/07 12:45:43;;;;;;;16.65;10.73;;;;;;;;;;5073732;28;20476;-68
2021/09/07 12:48:09;;;;;;;15.68;10.65;;;;;;;;;;5072508;28;20036;-68
2021/09/07 12:50:36;;;;;;;18.63;11.18;;;;;;;;;;5072794;28;20033;-68
2021/09/07 12:53:04;;;;;;;19.10;11.18;;;;;;;;;;5073668;28;20056;-68
2021/09/07 12:55:30;;;;;;;18.02;10.75;;;;;;;;;;5073382;28;20036;-68
2021/09/07 12:57:56;;;;;;;15.88;12.18;;;;;;;;;;5073418;28;20028;-69
2021/09/07 13:00:23;;;;;;;14.38;10.85;;;;;;;;;;5073535;28;20063;-68
2021/09/07 13:02:48;;;;;;;22.10;12.43;;;;;;;;;;5073538;28;20024;-68
2021/09/07 13:05:14;;;;;;;18.48;11.20;;;;;;;;;;5073562;28;20371;-68
2021/09/07 13:07:40;;;;;;;17.92;12.07;;;;;;;;;;5072728;28;20032;-70
2021/09/07 13:10:07;;;;;;;19.40;11.77;;;;;;;;;;5071701;28;20028;-69
2021/09/07 13:12:33;;;;;;;16.27;11.82;;;;;;;;;;5073282;28;20031;-68
2021/09/07 13:14:58;;;;;;;17.40;11.73;;;;;;;;;;5072944;28;20025;-68
2021/09/07 13:17:24;;;;;;;15.13;10.57;;;;;;;;;;5072895;28;20056;-68
2021/09/07 13:19:50;;;;;;;19.13;11.68;;;;;;;;;;5073144;28;20024;-68
2021/09/07 13:22:16;;;;;;;19.63;12.90;;;;;;;;;;5073058;28;20028;-68
2021/09/07 13:24:42;;;;;;;20.85;13.32;;;;;;;;;;5072931;28;20044;-68
2021/09/07 13:27:08;;;;;;;19.17;12.75;;;;;;;;;;5072046;28;20475;-68
2021/09/07 13:29:34;;;;;;;19.17;13.30;;;;;;;;;;5071922;28;20105;-68
2021/09/07 13:32:00;;;;;;;21.08;13.23;;;;;;;;;;5073024;28;20032;-68
2021/09/07 13:34:26;;;;;;;19.58;13.50;;;;;;;;;;5071735;28;20055;-69
2021/09/07 13:36:52;;;;;;;19.33;12.05;;;;;;;;;;5072888;28;20063;-68
2021/09/07 13:39:18;;;;;;;20.35;12.60;;;;;;;;;;5072882;28;20803;-68
2021/09/07 13:41:44;;;;;;;22.73;12.88;;;;;;;;;;5072897;28;20034;-68
2021/09/07 13:44:10;;;;;;;25.92;14.00;;;;;;;;;;5072812;28;20032;-68
2021/09/07 13:46:36;;;;;;;20.52;12.27;;;;;;;;;;5072785;28;20039;-68
2021/09/07 13:49:02;;;;;;;19.02;11.43;;;;;;;;;;5072163;28;20542;-68
2021/09/07 13:51:28;;;;;;;24.15;12.95;;;;;;;;;;5072691;28;20020;-68
2021/09/07 13:53:54;;;;;;;17.83;11.82;;;;;;;;;;5072913;28;20031;-68
2021/09/07 13:56:20;;;;;;;21.08;12.93;;;;;;;;;;5072474;28;20115;-68
2021/09/07 13:58:46;;;;;;;18.75;12.02;;;;;;;;;;5072761;28;20030;-68
2021/09/07 14:01:12;;;;;;;18.00;12.13;;;;;;;;;;5071639;28;20052;-68
2021/09/07 14:03:38;;;;;;;16.67;11.23;;;;;;;;;;5072728;28;20052;-68
2021/09/07 14:06:04;;;;;;;17.90;10.88;;;;;;;;;;5054898;28;20032;-69
2021/09/07 14:08:30;;;;;;;15.02;10.70;;;;;;;;;;5054728;28;20064;-68
2021/09/07 14:10:59;;;;;;;16.38;10.48;;;;;;;;;;5072474;28;20031;-69
2021/09/07 14:13:27;;;;;;;17.92;10.20;;;;;;;;;;5072473;28;20028;-68
2021/09/07 14:15:54;;;;;;;16.08;10.07;;;;;;;;;;5071535;28;20045;-69
2021/09/07 14:18:20;;;;;;;15.15;10.10;;;;;;;;;;5072449;28;20082;-69
2021/09/07 14:20:46;;;;;;;14.18;9.48;;;;;;;;;;5072841;28;20025;-69